Time;durP1;ratioP1;P1;durP2;ratioP2;P2;SDS_P1;SDS_P2;PMS_P1;PMS_P2;Temp;Humidity;BMP_temperature;BMP_pressure;BME280_temperature;BME280_humidity;BME280_pressure;Samples;Min_cycle;Max_cycle;Signal;HPM_P1;HPM_P2
2023/07/31 00:00:19;;;;;;;;;;;;;;;20.20;55.41;100968.13;4851837;29;119960;-71
2023/07/31 00:02:46;;;;;;;;;;;;;;;20.22;55.31;100968.84;4852194;28;118929;-71
2023/07/31 00:05:13;;;;;;;;;;;;;;;20.24;55.44;100969.56;4850851;29;124124;-71
2023/07/31 00:07:40;;;;;;;;;;;;;;;20.26;55.40;100966.75;4850012;28;124642;-71
2023/07/31 00:10:08;;;;;;;;;;;;;;;20.29;55.43;100966.53;4850729;29;119971;-71
2023/07/31 00:12:35;;;;;;;;;;;;;;;20.29;55.43;100961.97;4851542;28;118465;-71
2023/07/31 00:15:02;;;;;;;;;;;;;;;20.30;55.40;100958.28;4853135;28;123670;-72
2023/07/31 00:17:29;;;;;;;;;;;;;;;20.30;55.40;100958.28;4853812;28;124446;-72
2023/07/31 00:19:57;;;;;;;;;;;;;;;20.31;55.40;100965.41;4847133;29;120835;-72
2023/07/31 00:22:24;;;;;;;;;;;;;;;20.32;55.49;100950.09;4853249;28;120499;-72
2023/07/31 00:24:51;;;;;;;;;;;;;;;20.32;55.41;100968.94;4851920;29;125770;-72
2023/07/31 00:27:18;;;;;;;;;;;;;;;20.32;55.62;100961.69;4840342;28;124243;-71
2023/07/31 00:29:45;;;;;;;;;;;;;;;20.32;55.50;100961.69;4841849;28;120249;-72
2023/07/31 00:32:12;;;;;;;;;;;;;;;20.32;55.44;100961.69;4850476;28;119603;-72
2023/07/31 00:34:39;;;;;;;;;;;;;;;20.32;55.58;100956.31;4849377;28;125077;-72
2023/07/31 00:37:06;;;;;;;;;;;;;;;20.31;55.60;100954.63;4849297;29;123862;-72
2023/07/31 00:39:35;;;;;;;;;;;;;;;20.31;55.58;100959.16;4849675;28;118713;-72
2023/07/31 00:42:02;;;;;;;;;;;;;;;20.31;55.64;100954.63;4853301;29;119227;-71
2023/07/31 00:44:29;;;;;;;;;;;;;;;20.32;55.66;100952.78;4836003;28;123235;-71
2023/07/31 00:46:56;;;;;;;;;;;;;;;20.31;55.63;100933.13;4863281;28;123271;-71
2023/07/31 00:49:23;;;;;;;;;;;;;;;20.32;55.60;100942.88;4849103;28;120156;-72
2023/07/31 00:51:50;;;;;;;;;;;;;;;20.30;55.67;100942.16;4852312;28;117978;-73
2023/07/31 00:54:17;;;;;;;;;;;;;;;20.30;55.72;100958.28;4852502;28;123472;-72
2023/07/31 00:56:45;;;;;;;;;;;;;;;20.30;55.74;100954.75;4852716;28;123009;-73
2023/07/31 00:59:12;;;;;;;;;;;;;;;20.30;55.84;100952.06;4851302;29;118425;-72
2023/07/31 01:01:40;;;;;;;;;;;;;;;20.30;55.83;100947.53;4853587;29;118816;-72
2023/07/31 01:04:08;;;;;;;;;;;;;;;20.30;55.65;100936.78;4853005;29;124386;-72
2023/07/31 01:06:47;;;;;;;;;;;;;;;20.30;55.78;100936.78;4852651;29;123053;-72
2023/07/31 01:09:19;;;;;;;;;;;;;;;20.31;55.84;100933.13;4853109;29;119359;-72
2023/07/31 01:11:51;;;;;;;;;;;;;;;20.32;55.84;100945.56;4855444;29;119065;-72
2023/07/31 01:14:18;;;;;;;;;;;;;;;20.32;55.86;100932.13;4856878;29;124534;-72
2023/07/31 01:16:45;;;;;;;;;;;;;;;20.32;55.86;100929.44;4855135;28;123546;-73
2023/07/31 01:19:14;;;;;;;;;;;;;;;20.32;55.76;100940.19;4853779;28;118973;-73
2023/07/31 01:21:50;;;;;;;;;;;;;;;20.31;55.91;100933.13;4848811;28;118091;-73
2023/07/31 01:24:23;;;;;;;;;;;;;;;20.32;55.91;100929.44;4848565;29;124291;-73
2023/07/31 01:27:14;;;;;;;;;;;;;;;20.31;55.87;100930.44;4849820;28;124604;-73
2023/07/31 01:29:56;;;;;;;;;;;;;;;20.30;55.90;100926.00;4840249;29;119579;-72
2023/07/31 01:32:25;;;;;;;;;;;;;;;20.32;55.91;100934.81;4841844;28;119214;-73
2023/07/31 01:34:53;;;;;;;;;;;;;;;20.31;55.93;100933.13;4849438;29;123305;-73
2023/07/31 01:37:20;;;;;;;;;;;;;;;20.33;55.91;100936.53;4852625;28;123061;-72
2023/07/31 01:39:49;;;;;;;;;;;;;;;20.32;55.83;100934.81;4847366;28;120341;-72
2023/07/31 01:42:16;;;;;;;;;;;;;;;20.32;55.95;100929.44;4849381;29;117896;-72
2023/07/31 01:44:43;;;;;;;;;;;;;;;20.33;55.97;100933.84;4839575;28;123404;-71
2023/07/31 01:47:09;;;;;;;;;;;;;;;20.32;56.04;100929.44;4854870;29;123545;-71
2023/07/31 01:49:37;;;;;;;;;;;;;;;20.31;55.96;100922.34;4852524;28;119790;-71
2023/07/31 01:52:05;;;;;;;;;;;;;;;20.31;56.03;100927.75;4855851;28;119591;-71
2023/07/31 01:54:33;;;;;;;;;;;;;;;20.31;56.00;100916.97;4850335;28;123487;-71
2023/07/31 01:57:00;;;;;;;;;;;;;;;20.30;56.00;100915.25;4853911;28;123468;-72
2023/07/31 01:59:28;;;;;;;;;;;;;;;20.30;56.06;100915.25;4854767;28;121389;-72
2023/07/31 02:01:55;;;;;;;;;;;;;;;20.28;56.02;100906.47;4853102;28;118604;-72
2023/07/31 02:04:24;;;;;;;;;;;;;;;20.29;56.07;100908.19;4853048;28;125729;-72
2023/07/31 02:06:52;;;;;;;;;;;;;;;20.30;56.06;100915.25;4850872;29;124131;-71
2023/07/31 02:09:19;;;;;;;;;;;;;;;20.30;56.11;100909.88;4852471;29;117960;-72
2023/07/31 02:11:46;;;;;;;;;;;;;;;20.30;56.06;100909.03;4849742;28;117804;-73
2023/07/31 02:14:13;;;;;;;;;;;;;;;20.29;56.06;100902.81;4855139;28;123580;-73
2023/07/31 02:16:42;;;;;;;;;;;;;;;20.27;56.09;100894.03;4855077;29;124213;-73
2023/07/31 02:19:09;;;;;;;;;;;;;;;20.27;56.01;100894.03;4853691;28;120564;-74
2023/07/31 02:21:36;;;;;;;;;;;;;;;20.28;55.95;100894.88;4853503;28;118757;-73
2023/07/31 02:24:04;;;;;;;;;;;;;;;20.26;56.03;100886.91;4844906;29;124709;-73
2023/07/31 02:26:31;;;;;;;;;;;;;;;20.25;56.13;100885.22;4853611;29;124080;-74
2023/07/31 02:28:58;;;;;;;;;;;;;;;20.23;56.09;100876.44;4850121;28;118763;-73
2023/07/31 02:31:27;;;;;;;;;;;;;;;20.22;56.13;100888.16;4853889;28;117603;-73
2023/07/31 02:33:54;;;;;;;;;;;;;;;20.21;56.18;100892.72;4855461;29;123017;-72
2023/07/31 02:36:21;;;;;;;;;;;;;;;20.20;56.09;100887.44;4851584;29;123231;-72
2023/07/31 02:38:48;;;;;;;;;;;;;;;20.19;56.05;100885.72;4855074;29;118741;-73
2023/07/31 02:41:15;;;;;;;;;;;;;;;20.18;56.07;100878.66;4854807;29;118162;-72
2023/07/31 02:43:42;;;;;;;;;;;;;;;20.17;56.14;100887.69;4855372;28;123352;-72
2023/07/31 02:46:10;;;;;;;;;;;;;;;20.16;56.13;100886.00;4853821;29;125011;-73
2023/07/31 02:48:37;;;;;;;;;;;;;;;20.15;56.10;100885.13;4847252;29;120492;-72
2023/07/31 02:51:05;;;;;;;;;;;;;;;20.14;56.12;100883.44;4850739;29;120093;-72
2023/07/31 02:53:32;;;;;;;;;;;;;;;20.14;56.12;100893.34;4851043;28;125171;-73
2023/07/31 02:56:01;;;;;;;;;;;;;;;20.14;56.16;100871.84;4839685;29;123259;-72
2023/07/31 02:58:27;;;;;;;;;;;;;;;20.14;56.16;100872.69;4854229;28;121027;-72
2023/07/31 03:00:55;;;;;;;;;;;;;;;20.14;56.15;100877.22;4853342;28;119105;-72
2023/07/31 03:03:22;;;;;;;;;;;;;;;20.14;56.06;100874.53;4851688;28;125102;-72
2023/07/31 03:05:49;;;;;;;;;;;;;;;20.13;56.11;100868.28;4849509;29;124907;-71
2023/07/31 03:08:16;;;;;;;;;;;;;;;20.14;56.24;100874.53;4851777;29;118534;-72
2023/07/31 03:10:43;;;;;;;;;;;;;;;20.14;56.18;100866.47;4838302;29;118284;-72
2023/07/31 03:13:10;;;;;;;;;;;;;;;20.13;56.22;100870.13;4851994;29;124891;-71
2023/07/31 03:15:37;;;;;;;;;;;;;;;20.13;56.15;100870.13;4834725;29;122319;-72
2023/07/31 03:18:04;;;;;;;;;;;;;;;20.13;56.17;100867.44;4853583;28;118617;-72
2023/07/31 03:20:31;;;;;;;;;;;;;;;20.12;56.08;100868.44;4852235;29;119029;-71
2023/07/31 03:22:58;;;;;;;;;;;;;;;20.12;56.16;100873.81;4848077;29;124812;-71
2023/07/31 03:25:25;;;;;;;;;;;;;;;20.13;56.18;100875.50;4852829;28;124003;-71
2023/07/31 03:27:52;;;;;;;;;;;;;;;20.13;56.17;100875.50;4838952;29;118696;-71
2023/07/31 03:30:19;;;;;;;;;;;;;;;20.14;56.17;100877.22;4842417;28;119373;-71
2023/07/31 03:32:46;;;;;;;;;;;;;;;20.14;56.17;100880.75;4843672;29;124286;-71
2023/07/31 03:35:13;;;;;;;;;;;;;;;20.14;56.19;100871.84;4852506;29;124479;-70
2023/07/31 03:37:41;;;;;;;;;;;;;;;20.14;56.23;100870.00;4847395;29;120633;-71
2023/07/31 03:40:08;;;;;;;;;;;;;;;20.14;56.22;100867.31;4852242;28;120193;-71
2023/07/31 03:42:36;;;;;;;;;;;;;;;20.15;56.16;100862.78;4849827;28;124778;-71
2023/07/31 03:45:04;;;;;;;;;;;;;;;20.15;56.15;100852.03;4849721;29;124348;-71
2023/07/31 03:47:31;;;;;;;;;;;;;;;20.16;56.23;100859.13;4850879;29;119341;-71
2023/07/31 03:49:58;;;;;;;;;;;;;;;20.15;56.24;100838.56;4844182;29;119535;-71
2023/07/31 03:52:25;;;;;;;;;;;;;;;20.15;56.17;100835.88;4850097;29;123376;-72
2023/07/31 03:54:52;;;;;;;;;;;;;;;20.14;56.11;100839.56;4853711;28;123174;-72
2023/07/31 03:57:19;;;;;;;;;;;;;;;20.15;56.20;100841.25;4841992;29;119640;-72
2023/07/31 03:59:46;;;;;;;;;;;;;;;20.15;56.09;100835.88;4843198;28;118373;-72
2023/07/31 04:02:14;;;;;;;;;;;;;;;20.15;56.29;100835.88;4848223;28;123399;-72
2023/07/31 04:04:41;;;;;;;;;;;;;;;20.15;56.22;100835.88;4852627;29;123471;-72
2023/07/31 04:07:08;;;;;;;;;;;;;;;20.17;56.16;100833.91;4850914;29;119437;-71
2023/07/31 04:09:35;;;;;;;;;;;;;;;20.17;56.16;100829.41;4844826;29;118605;-70
2023/07/31 04:12:03;;;;;;;;;;;;;;;20.18;56.31;100825.72;4851655;28;124131;-71
2023/07/31 04:14:30;;;;;;;;;;;;;;;20.20;56.27;100828.28;4853339;28;124102;-71
2023/07/31 04:16:57;;;;;;;;;;;;;;;20.21;56.29;100827.28;4849596;28;119417;-71
2023/07/31 04:19:24;;;;;;;;;;;;;;;20.23;56.30;100828.03;4852023;29;118753;-70
2023/07/31 04:21:52;;;;;;;;;;;;;;;20.23;56.17;100823.50;4849163;28;124210;-72
2023/07/31 04:24:24;;;;;;;;;;;;;;;20.26;56.17;100830.44;4852164;28;124037;-71
2023/07/31 04:26:51;;;;;;;;;;;;;;;20.27;56.26;100821.41;4841174;29;120405;-71
2023/07/31 04:29:19;;;;;;;;;;;;;;;20.28;56.28;100820.41;4844831;29;120003;-71
2023/07/31 04:31:46;;;;;;;;;;;;;;;20.30;56.26;100818.41;4853734;28;124536;-71
2023/07/31 04:34:13;;;;;;;;;;;;;;;20.32;56.35;100821.81;4851820;29;124489;-71
2023/07/31 04:36:40;;;;;;;;;;;;;;;20.34;56.18;100822.56;4846193;28;118278;-71
2023/07/31 04:39:08;;;;;;;;;;;;;;;20.35;56.37;100821.56;4851895;29;118875;-72
2023/07/31 04:41:35;;;;;;;;;;;;;;;20.38;56.30;100810.56;4852392;28;125352;-71
2023/07/31 04:44:03;;;;;;;;;;;;;;;20.39;56.27;100812.25;4855233;28;124361;-70
2023/07/31 04:46:30;;;;;;;;;;;;;;;20.41;56.26;100804.88;4855707;29;120464;-71
2023/07/31 04:48:57;;;;;;;;;;;;;;;20.42;56.42;100801.22;4855388;29;118950;-71
2023/07/31 04:51:25;;;;;;;;;;;;;;;20.46;56.30;100800.97;4855487;29;125714;-71
2023/07/31 04:53:52;;;;;;;;;;;;;;;20.48;56.28;100804.38;4856609;29;124190;-71
2023/07/31 04:56:19;;;;;;;;;;;;;;;20.50;56.31;100797.03;4855396;29;119481;-71
2023/07/31 04:58:46;;;;;;;;;;;;;;;20.51;56.30;100790.63;4854014;28;118958;-71
2023/07/31 05:01:13;;;;;;;;;;;;;;;20.53;56.41;100796.72;4856079;28;125134;-72
2023/07/31 05:03:40;;;;;;;;;;;;;;;20.53;56.28;100788.66;4851647;29;124017;-74
2023/07/31 05:06:07;;;;;;;;;;;;;;;20.54;56.18;100798.44;4841743;29;118433;-72
2023/07/31 05:08:34;;;;;;;;;;;;;;;20.54;56.29;100798.44;4856524;28;117971;-73
2023/07/31 05:11:02;;;;;;;;;;;;;;;20.54;56.34;100787.69;4848962;29;124282;-72
2023/07/31 05:13:29;;;;;;;;;;;;;;;20.57;56.35;100782.03;4846616;29;123973;-72
2023/07/31 05:15:57;;;;;;;;;;;;;;;20.59;56.32;100785.44;4855303;28;119379;-72
2023/07/31 05:18:27;;;;;;;;;;;;;;;20.61;56.35;100783.50;4855437;28;119931;-72
2023/07/31 05:20:55;;;;;;;;;;;;;;;20.62;56.33;100774.44;4852977;29;124253;-73
2023/07/31 05:23:22;;;;;;;;;;;;;;;20.63;56.24;100776.16;4853730;29;123465;-73
2023/07/31 05:25:49;;;;;;;;;;;;;;;20.64;56.40;100767.06;4850830;28;119942;-73
2023/07/31 05:28:16;;;;;;;;;;;;;;;20.65;56.34;100767.94;4855865;28;118729;-72
2023/07/31 05:30:43;;;;;;;;;;;;;;;20.67;56.43;100761.44;4851462;29;123489;-71
2023/07/31 05:33:10;;;;;;;;;;;;;;;20.71;56.40;100765.53;4845830;28;122950;-72
2023/07/31 05:35:40;;;;;;;;;;;;;;;20.75;56.33;100758.88;4837566;29;119822;-72
2023/07/31 05:38:07;;;;;;;;;;;;;;;20.76;56.26;100755.22;4858235;28;117882;-72
2023/07/31 05:40:35;;;;;;;;;;;;;;;20.76;56.32;100755.22;4853303;28;124773;-72
2023/07/31 05:43:02;;;;;;;;;;;;;;;20.76;56.21;100760.59;4849820;29;124136;-72
2023/07/31 05:45:29;;;;;;;;;;;;;;;20.74;56.33;100757.19;4855017;28;119602;-72
2023/07/31 05:47:56;;;;;;;;;;;;;;;20.73;56.33;100747.41;4850549;28;119192;-72
2023/07/31 05:50:24;;;;;;;;;;;;;;;20.72;56.34;100748.41;4848149;28;124277;-71
2023/07/31 05:52:51;;;;;;;;;;;;;;;20.73;56.28;100750.09;4854874;29;123072;-72
2023/07/31 05:55:18;;;;;;;;;;;;;;;20.72;56.31;100753.78;4848415;28;118589;-71
2023/07/31 05:57:45;;;;;;;;;;;;;;;20.72;56.35;100748.41;4844426;29;117799;-71
2023/07/31 06:00:13;;;;;;;;;;;;;;;20.72;56.43;100748.41;4855476;28;124158;-71
2023/07/31 06:02:40;;;;;;;;;;;;;;;20.72;56.41;100742.16;4843640;29;125591;-72
2023/07/31 06:05:07;;;;;;;;;;;;;;;20.70;56.41;100745.00;4842121;28;120624;-73
2023/07/31 06:07:34;;;;;;;;;;;;;;;20.68;56.52;100735.34;4852800;29;119609;-71
2023/07/31 06:10:04;;;;;;;;;;;;;;;20.65;56.47;100747.25;4851273;29;124218;-71
2023/07/31 06:12:32;;;;;;;;;;;;;;;20.62;56.42;100731.38;4852123;28;124038;-72
2023/07/31 06:14:59;;;;;;;;;;;;;;;20.62;56.50;100734.06;4854207;28;119542;-72
2023/07/31 06:17:27;;;;;;;;;;;;;;;20.60;56.62;100734.19;4854485;29;118073;-72
2023/07/31 06:19:54;;;;;;;;;;;;;;;20.60;56.62;100727.97;4853781;28;125125;-71
2023/07/31 06:22:21;;;;;;;;;;;;;;;20.59;56.63;100726.25;4852843;29;125719;-72
2023/07/31 06:24:48;;;;;;;;;;;;;;;20.59;56.65;100723.56;4847879;29;118544;-72
2023/07/31 06:27:15;;;;;;;;;;;;;;;20.59;56.70;100726.25;4840522;29;118676;-73
2023/07/31 06:29:42;;;;;;;;;;;;;;;20.59;56.77;100720.88;4847545;29;124142;-72
2023/07/31 06:32:10;;;;;;;;;;;;;;;20.59;56.69;100726.25;4851381;29;125040;-73
2023/07/31 06:34:37;;;;;;;;;;;;;;;20.58;56.72;100719.16;4838122;29;119561;-71
2023/07/31 06:37:05;;;;;;;;;;;;;;;20.57;56.75;100723.69;4841671;28;118745;-71
2023/07/31 06:39:31;;;;;;;;;;;;;;;20.60;56.85;100723.44;4844959;28;124395;-72
2023/07/31 06:41:58;;;;;;;;;;;;;;;20.60;56.78;100723.44;4841846;28;123008;-71
2023/07/31 06:44:26;;;;;;;;;;;;;;;20.62;56.70;100704.47;4848615;28;118438;-71
2023/07/31 06:46:53;;;;;;;;;;;;;;;20.62;56.82;100715.22;4846755;29;119051;-71
2023/07/31 06:49:20;;;;;;;;;;;;;;;20.63;56.88;100708.88;4853772;28;124363;-71
2023/07/31 06:51:47;;;;;;;;;;;;;;;20.65;56.88;100704.19;4842512;28;123783;-71
2023/07/31 06:54:14;;;;;;;;;;;;;;;20.65;56.87;100698.81;4844494;28;120402;-72
2023/07/31 06:56:41;;;;;;;;;;;;;;;20.65;56.91;100693.44;4845110;28;118733;-71
2023/07/31 06:59:08;;;;;;;;;;;;;;;20.67;56.87;100698.69;4846774;29;124238;-71
2023/07/31 07:01:36;;;;;;;;;;;;;;;20.69;56.92;100689.47;4843037;28;124882;-71
2023/07/31 07:04:03;;;;;;;;;;;;;;;20.70;57.01;100696.56;4847432;29;120591;-71
2023/07/31 07:06:30;;;;;;;;;;;;;;;20.72;57.11;100683.81;4850573;29;118669;-72
2023/07/31 07:08:57;;;;;;;;;;;;;;;20.76;57.05;100690.63;4851219;28;125089;-71
2023/07/31 07:11:24;;;;;;;;;;;;;;;20.77;57.05;100689.63;4847317;28;124763;-71
2023/07/31 07:13:52;;;;;;;;;;;;;;;20.77;57.14;100681.53;4839840;29;119761;-71
2023/07/31 07:16:18;;;;;;;;;;;;;;;20.77;57.02;100686.91;4851153;28;118507;-71
2023/07/31 07:18:46;;;;;;;;;;;;;;;20.78;57.00;100683.25;4840769;28;123266;-73
2023/07/31 07:21:30;;;;;;;;;;;;;;;20.78;57.04;100679.72;4837281;29;122808;-71
2023/07/31 07:23:57;;;;;;;;;;;;;;;20.78;57.14;100677.03;4850718;29;118294;-71
2023/07/31 07:26:24;;;;;;;;;;;;;;;20.78;57.17;100682.41;4851131;28;118938;-71
2023/07/31 07:28:51;;;;;;;;;;;;;;;20.78;57.16;100677.88;4842326;28;123705;-71
2023/07/31 07:31:19;;;;;;;;;;;;;;;20.79;57.09;100679.59;4841215;28;124675;-71
2023/07/31 07:33:46;;;;;;;;;;;;;;;20.82;57.09;100674.91;4842844;28;121056;-71
2023/07/31 07:36:13;;;;;;;;;;;;;;;20.81;57.15;100674.03;4841768;29;118895;-72
2023/07/31 07:38:41;;;;;;;;;;;;;;;20.82;57.07;100677.59;4840838;28;124665;-71
2023/07/31 07:41:08;;;;;;;;;;;;;;;20.82;57.18;100678.44;4848485;28;124271;-72
2023/07/31 07:43:35;;;;;;;;;;;;;;;20.83;57.28;100668.53;4851253;29;121140;-73
2023/07/31 07:46:02;;;;;;;;;;;;;;;20.85;57.38;100677.31;4847406;29;120527;-72
2023/07/31 07:48:29;;;;;;;;;;;;;;;20.88;57.36;100671.66;4848210;28;124699;-72
2023/07/31 07:50:56;;;;;;;;;;;;;;;20.90;57.40;100666.97;4834702;28;123911;-72
2023/07/31 07:53:23;;;;;;;;;;;;;;;20.93;57.39;100674.78;4849789;28;120667;-72
2023/07/31 07:55:50;;;;;;;;;;;;;;;20.94;57.42;100671.91;4847866;28;118268;-72
2023/07/31 07:58:17;;;;;;;;;;;;;;;20.96;57.32;100661.03;4852952;29;123430;-71
2023/07/31 08:00:51;;;;;;;;;;;;;;;20.97;57.33;100665.44;4850175;28;124529;-72
2023/07/31 08:03:18;;;;;;;;;;;;;;;20.97;57.31;100665.44;4850224;29;119389;-72
2023/07/31 08:05:45;;;;;;;;;;;;;;;20.98;57.34;100661.72;4847170;29;119716;-71
2023/07/31 08:08:16;;;;;;;;;;;;;;;20.98;57.39;100667.09;4849632;28;124211;-72
2023/07/31 08:10:43;;;;;;;;;;;;;;;20.97;57.30;100660.03;4839823;29;123278;-72
2023/07/31 08:13:11;;;;;;;;;;;;;;;20.97;57.30;100670.81;4841574;29;120135;-71
2023/07/31 08:15:41;;;;;;;;;;;;;;;20.95;57.32;100657.47;4837635;28;118963;-72
2023/07/31 08:18:09;;;;;;;;;;;;;;;20.96;57.29;100658.31;4844266;28;124496;-72
2023/07/31 08:20:37;;;;;;;;;;;;;;;20.96;57.48;100658.31;4852047;29;124375;-73
2023/07/31 08:23:04;;;;;;;;;;;;;;;20.96;57.50;100661.03;4850959;29;120182;-71
2023/07/31 08:25:34;;;;;;;;;;;;;;;20.94;57.44;100660.31;4844414;28;120274;-72
2023/07/31 08:28:04;;;;;;;;;;;;;;;20.95;57.42;100662.03;4841199;29;124836;-71
2023/07/31 08:30:33;;;;;;;;;;;;;;;20.95;57.49;100662.03;4851482;29;124181;-71
2023/07/31 08:33:00;;;;;;;;;;;;;;;20.95;57.51;100664.72;4844572;28;120398;-71
2023/07/31 08:35:30;;;;;;;;;;;;;;;20.97;57.58;100660.03;4844141;29;119835;-71
2023/07/31 08:37:57;;;;;;;;;;;;;;;20.99;57.60;100658.06;4845207;29;124416;-71
2023/07/31 08:40:24;;;;;;;;;;;;;;;21.03;57.57;100664.84;4844189;28;122886;-71
2023/07/31 08:42:53;;;;;;;;;;;;;;;21.07;57.62;100660.88;4838502;28;119562;-71
2023/07/31 08:45:20;;;;;;;;;;;;;;;21.09;57.65;100658.88;4845726;29;118701;-72
2023/07/31 08:47:48;;;;;;;;;;;;;;;21.09;57.60;100658.03;4852849;28;124460;-72
2023/07/31 08:50:16;;;;;;;;;;;;;;;21.10;57.71;100659.75;4850522;28;124523;-72
2023/07/31 08:52:45;;;;;;;;;;;;;;;21.10;57.63;100655.22;4852216;28;118434;-71
2023/07/31 08:55:12;;;;;;;;;;;;;;;21.10;57.63;100659.75;4849281;29;118927;-71
2023/07/31 08:57:41;;;;;;;;;;;;;;;21.10;57.54;100657.91;4842599;29;124261;-72
2023/07/31 09:00:09;;;;;;;;;;;;;;;21.11;57.75;100661.44;4834140;29;123984;-72
2023/07/31 09:02:41;;;;;;;;;;;;;;;21.12;57.68;100655.94;4850335;28;119519;-71
2023/07/31 09:05:09;;;;;;;;;;;;;;;21.12;57.64;100664.00;4846572;28;119030;-72
2023/07/31 09:07:36;;;;;;;;;;;;;;;21.11;57.65;100656.91;4851018;28;124116;-72
2023/07/31 09:10:03;;;;;;;;;;;;;;;21.11;57.86;100650.69;4844386;28;125146;-71
2023/07/31 09:12:31;;;;;;;;;;;;;;;21.12;57.77;100658.63;4847226;29;119736;-72
2023/07/31 09:14:58;;;;;;;;;;;;;;;21.14;57.75;100662.03;4849444;29;118984;-72
2023/07/31 09:17:38;;;;;;;;;;;;;;;21.15;57.71;100662.84;4847411;29;124681;-72
2023/07/31 09:20:14;;;;;;;;;;;;;;;21.16;57.80;100646.56;4849983;29;124471;-72
2023/07/31 09:22:43;;;;;;;;;;;;;;;21.17;57.92;100650.09;4849705;28;120645;-72
2023/07/31 09:25:21;;;;;;;;;;;;;;;21.16;57.79;100646.56;4839696;29;119825;-72
2023/07/31 09:27:58;;;;;;;;;;;;;;;21.16;57.69;100648.41;4847535;28;125142;-71
2023/07/31 09:30:26;;;;;;;;;;;;;;;21.15;57.75;100647.56;4838789;28;124603;-71
2023/07/31 09:33:03;;;;;;;;;;;;;;;21.14;57.87;100640.47;4848663;29;120377;-72
2023/07/31 09:35:31;;;;;;;;;;;;;;;21.12;57.79;100653.22;4841171;28;119198;-71
2023/07/31 09:37:59;;;;;;;;;;;;;;;21.12;57.87;100642.47;4847760;29;124203;-71
2023/07/31 09:40:30;;;;;;;;;;;;;;;21.12;57.88;100637.06;4835958;29;124660;-71
2023/07/31 09:43:04;;;;;;;;;;;;;;;21.13;57.87;100633.38;4861044;28;120522;-71
2023/07/31 09:45:34;;;;;;;;;;;;;;;21.13;57.98;100633.38;4843498;29;118890;-71
2023/07/31 09:48:12;;;;;;;;;;;;;;;21.15;58.02;100626.03;4837869;29;123212;-72
2023/07/31 09:50:40;;;;;;;;;;;;;;;21.18;57.98;100628.41;4846953;29;124556;-71
2023/07/31 09:53:08;;;;;;;;;;;;;;;21.20;58.08;100618.34;4845872;29;118524;-72
2023/07/31 09:55:36;;;;;;;;;;;;;;;21.26;58.07;100621.47;4855648;28;118649;-71
2023/07/31 09:58:04;;;;;;;;;;;;;;;21.29;58.05;100632.81;4851378;29;124284;-71
2023/07/31 10:00:32;;;;;;;;;;;;;;;21.33;58.04;100630.69;4847605;28;123787;-71
2023/07/31 10:03:01;;;;;;;;;;;;;;;21.37;58.00;100629.38;4841670;29;119604;-71
2023/07/31 10:05:34;;;;;;;;;;;;;;;21.42;58.14;100627.13;4840596;28;117963;-71
2023/07/31 10:08:01;;;;;;;;;;;;;;;21.46;57.97;100628.56;4847973;29;125018;-71
2023/07/31 10:10:29;;;;;;;;;;;;;;;21.49;58.18;100628.28;4842849;29;124079;-71
2023/07/31 10:12:57;;;;;;;;;;;;;;;21.53;58.05;100629.69;4852952;28;120861;-71
2023/07/31 10:15:25;;;;;;;;;;;;;;;21.58;58.05;100623.84;4846910;28;119867;-72
2023/07/31 10:17:53;;;;;;;;;;;;;;;21.62;58.04;100619.00;4850232;29;124465;-71
2023/07/31 10:20:21;;;;;;;;;;;;;;;21.66;58.16;100623.09;4849730;28;123080;-72
2023/07/31 10:22:51;;;;;;;;;;;;;;;21.70;58.07;100621.81;4851017;28;119932;-70
2023/07/31 10:25:19;;;;;;;;;;;;;;;21.76;58.17;100623.94;4851435;28;117865;-71
2023/07/31 10:27:47;;;;;;;;;;;;;;;21.85;58.29;100622.19;4844536;28;124843;-71
2023/07/31 10:30:15;;;;;;;;;;;;;;;21.92;58.23;100621.44;4840819;28;124483;-73
2023/07/31 10:32:48;;;;;;;;;;;;;;;21.99;58.08;100615.47;4837386;29;119951;-71
2023/07/31 10:35:15;;;;;;;;;;;;;;;22.03;58.17;100614.16;4843525;29;118625;-71
2023/07/31 10:37:43;;;;;;;;;;;;;;;22.09;58.04;100609.00;4841338;28;123939;-71
2023/07/31 10:40:13;;;;;;;;;;;;;;;22.17;58.18;100616.38;4848403;28;127739;-71
2023/07/31 10:42:50;;;;;;;;;;;;;;;22.25;58.18;100616.50;4842899;29;119841;-71
2023/07/31 10:45:26;;;;;;;;;;;;;;;22.35;58.12;100603.78;4840650;29;119125;-72
2023/07/31 10:48:03;;;;;;;;;;;;;;;22.41;58.17;100601.50;4849481;28;123897;-71
2023/07/31 10:50:34;;;;;;;;;;;;;;;22.46;58.06;100610.00;4852324;28;124967;-71
2023/07/31 10:53:01;;;;;;;;;;;;;;;22.49;57.79;100604.25;4842727;29;118478;-72
2023/07/31 10:55:30;;;;;;;;;;;;;;;22.52;57.94;100606.66;4845834;28;119199;-72
2023/07/31 10:58:13;;;;;;;;;;;;;;;22.55;58.01;100611.78;4845982;28;123787;-72
2023/07/31 11:00:41;;;;;;;;;;;;;;;22.57;57.89;100601.66;4845285;28;124283;-72
2023/07/31 11:03:12;;;;;;;;;;;;;;;22.59;57.91;100599.66;4843350;28;120581;-73
2023/07/31 11:05:53;;;;;;;;;;;;;;;22.61;57.77;100602.22;4863726;28;119285;-73
2023/07/31 11:08:25;;;;;;;;;;;;;;;22.60;57.73;100595.94;4846992;28;124406;-72
2023/07/31 11:11:01;;;;;;;;;;;;;;;22.59;57.98;100588.88;4845980;29;124525;-72
2023/07/31 11:13:31;;;;;;;;;;;;;;;22.57;57.76;100596.28;4842643;29;120297;-71
2023/07/31 11:15:59;;;;;;;;;;;;;;;22.54;57.63;100607.38;4848927;28;119211;-71
2023/07/31 11:18:26;;;;;;;;;;;;;;;22.51;57.82;100613.09;4850116;28;123665;-71
2023/07/31 11:20:54;;;;;;;;;;;;;;;22.48;57.64;100603.44;4849664;29;124375;-71
2023/07/31 11:23:22;;;;;;;;;;;;;;;22.48;57.77;100607.97;4835048;29;118447;-72
2023/07/31 11:25:50;;;;;;;;;;;;;;;22.49;57.78;100604.25;4841372;29;118671;-71
2023/07/31 11:28:18;;;;;;;;;;;;;;;22.51;58.04;100596.91;4847546;29;124198;-70
2023/07/31 11:30:46;;;;;;;;;;;;;;;22.57;57.99;100607.06;4843731;29;124131;-72
2023/07/31 11:33:14;;;;;;;;;;;;;;;22.62;58.06;100593.97;4850126;29;120925;-71
2023/07/31 11:35:45;;;;;;;;;;;;;;;22.71;58.24;100582.22;4848122;29;118970;-71
2023/07/31 11:38:21;;;;;;;;;;;;;;;22.82;58.24;100593.81;4839945;29;124368;-71
2023/07/31 11:40:48;;;;;;;;;;;;;;;22.92;58.22;100589.16;4845954;29;123008;-71
2023/07/31 11:43:18;;;;;;;;;;;;;;;22.99;58.18;100590.22;4851944;29;118380;-71
2023/07/31 11:45:47;;;;;;;;;;;;;;;23.09;58.12;100596.44;4853270;28;118129;-71
2023/07/31 11:48:24;;;;;;;;;;;;;;;23.19;57.94;100584.66;4850910;29;124470;-72
2023/07/31 11:50:52;;;;;;;;;;;;;;;23.25;58.06;100581.34;4847956;29;124222;-71
2023/07/31 11:53:28;;;;;;;;;;;;;;;23.31;57.98;100578.84;4844278;28;120571;-71
2023/07/31 11:55:57;;;;;;;;;;;;;;;23.38;57.80;100576.38;4838601;28;119848;-71
2023/07/31 11:58:24;;;;;;;;;;;;;;;23.44;58.00;100572.19;4847120;28;124522;-71
2023/07/31 12:00:52;;;;;;;;;;;;;;;23.48;57.66;100569.00;4843995;28;123847;-71
2023/07/31 12:03:19;;;;;;;;;;;;;;;23.54;57.79;100572.06;4843479;29;119626;-70
2023/07/31 12:05:47;;;;;;;;;;;;;;;23.59;57.82;100569.75;4851896;29;117867;-71
2023/07/31 12:08:16;;;;;;;;;;;;;;;23.62;57.59;100578.38;4846626;28;122984;-71
2023/07/31 12:10:44;;;;;;;;;;;;;;;23.63;57.57;100581.91;4843990;28;125103;-70
2023/07/31 12:13:15;;;;;;;;;;;;;;;23.65;57.47;100574.50;4852960;29;119790;-70
2023/07/31 12:15:47;;;;;;;;;;;;;;;23.65;57.66;100579.91;4851181;28;119328;-70
2023/07/31 12:18:19;;;;;;;;;;;;;;;23.65;57.74;100569.09;4845611;29;125136;-71
2023/07/31 12:20:47;;;;;;;;;;;;;;;23.64;57.39;100578.19;4849315;28;124004;-73
2023/07/31 12:23:16;;;;;;;;;;;;;;;23.64;57.42;100579.06;4845210;28;119587;-70
2023/07/31 12:25:43;;;;;;;;;;;;;;;23.65;57.55;100574.50;4852051;29;118161;-71
2023/07/31 12:28:13;;;;;;;;;;;;;;;23.64;57.29;100594.41;4832070;29;123541;-72
2023/07/31 12:30:41;;;;;;;;;;;;;;;23.63;57.28;100577.34;4844159;28;124303;-72
2023/07/31 12:33:13;;;;;;;;;;;;;;;23.61;57.40;100583.94;4846838;28;120847;-70